METAR Data
IDs: Format: Raw Decoded Include TAF

Data at: 1710 UTC 24 Aug 2019

PADK 241656Z AUTO 35006KT 10SM FEW007 OVC032 09/08 A3016 RMK AO2 SLP212 T00890083
PADK 241556Z AUTO 00000KT 10SM FEW007 OVC036 09/08 A3015 RMK AO2 SLP210 T00890083
PADK 241540Z AUTO 00000KT 10SM SCT007 SCT013 OVC038 09/08 A3015 RMK AO2
PADK 241531Z AUTO 00000KT 10SM SCT007 BKN013 OVC038 09/08 A3015 RMK AO2
PADK 241521Z AUTO 00000KT 10SM BKN007 BKN013 OVC040 09/08 A3015 RMK AO2
PADK 241514Z AUTO 00000KT 10SM FEW007 SCT013 OVC040 09/08 A3015 RMK AO2
PADK 241456Z AUTO 34005KT 10SM OVC040 09/08 A3015 RMK AO2 SLP209 T00890083 53006
PADK 241356Z AUTO 34005KT 10SM FEW011 07/06 A3014 RMK AO2 SLP206 T00670056
PADK 241256Z AUTO 32004KT 10SM SCT035 07/06 A3014 RMK AO2 SLP205 T00720056
PADK 241156Z AUTO 01004KT 10SM FEW022 OVC035 09/07 A3013 RMK AO2 SLP203 70002 T00890067 10106 20089 51009
PADK 241056Z AUTO 01004KT 10SM FEW025 OVC033 10/07 A3012 RMK AO2 SLP201 T01000067
PADK 240956Z AUTO 02006KT 10SM OVC035 10/06 A3012 RMK AO2 SLP198 T01000056 401220094
PADK 240856Z AUTO 01008KT 10SM SCT014 OVC035 10/08 A3010 RMK AO2 SLP194 T01000078 53009
PADK 240830Z AUTO 36006KT 10SM BKN014 OVC033 10/08 A3010 RMK AO2
PADK 240756Z AUTO 01007KT 10SM OVC031 10/08 A3009 RMK AO2 SLP191 T01000078
PADK 240656Z AUTO 01007KT 10SM FEW012 OVC033 11/08 A3008 RMK AO2 SLP185 T01060083
PADK 240556Z AUTO 36006KT 10SM OVC033 11/08 A3008 RMK AO2 SLP185 T01060078 10122 20106 51015
PADK 240456Z AUTO 35008KT 10SM OVC031 11/08 A3006 RMK AO2 SLP179 T01110083
PADK 240413Z AUTO 35010KT 10SM OVC031 11/08 A3006 RMK AO2
PADK 240356Z AUTO 35011KT 10SM OVC029 12/08 A3005 RMK AO2 SLP176 T01170083
PADK 240256Z AUTO 34013KT 10SM FEW020 OVC027 12/08 A3003 RMK AO2 SLP170 T01170083 53002
PADK 240219Z AUTO 36012KT 10SM OVC029 12/08 A3003 RMK AO2
PADK 240156Z AUTO 36011KT 10SM OVC031 12/08 A3003 RMK AO2 SLP167 T01220078
PADK 240140Z AUTO 36012KT 10SM OVC031 12/08 A3002 RMK AO2
PADK 240056Z AUTO 36012KT 10SM OVC029 12/07 A3003 RMK AO2 SLP168 T01220072
PADK 232356Z AUTO 02008KT 10SM OVC025 12/07 A3003 RMK AO2 SLP168 T01220072 10122 20106 53008
PADK 232256Z AUTO 02008KT 10SM OVC023 12/08 A3002 RMK AO2 SLP165 T01220078
PADK 232156Z AUTO 01010KT 10SM SCT019 OVC026 12/08 A3001 RMK AO2 SLP162 T01170078
PADK 232056Z AUTO 35010KT 10SM FEW017 OVC025 11/08 A3000 RMK AO2 SLP160 T01110078 51014
PADK 231956Z AUTO 36010KT 10SM OVC029 11/09 A2999 RMK AO2 SLP155 T01110089
PADK 231911Z AUTO 36009KT 10SM BKN029 OVC034 11/09 A2998 RMK AO2
PADK 231856Z AUTO 36008KT 10SM OVC033 11/09 A2998 RMK AO2 SLP152 T01060089
PADK 231756Z AUTO 02007KT 10SM FEW029 OVC037 11/09 A2996 RMK AO2 SLP146 60002 T01060089 10106 20100 53010
PADK 231656Z AUTO 01010KT 10SM BKN025 OVC031 10/09 A2995 RMK AO2 SLP142 T01000089
PADK 231556Z AUTO 01008KT 10SM BKN023 OVC029 10/09 A2994 RMK AO2 RAE49 SLP140 P0000 T01000089
PADK 231540Z AUTO 01012KT 7SM -RA OVC029 10/09 A2994 RMK AO2 P0000
PADK 231528Z AUTO 01011KT 10SM -RA SCT021 OVC031 10/09 A2994 RMK AO2 P0000
PADK 231453Z AUTO 36011KT 9SM OVC015 10/09 A2993 RMK AO2 RAE40 P0001
PADK 231430Z AUTO 36014KT 7SM -RA OVC011 10/09 A2993 RMK AO2 P0001
PADK 231356Z AUTO 02009KT 4SM -RA BR OVC007 10/09 A2992 RMK AO2 RAB03 SLP133 P0001 T01000094
PADK 231256Z AUTO 35012KT 7SM OVC007 11/10 A2990 RMK AO2 SLP126 T01060100
PADK 231156Z AUTO 35012KT 8SM OVC005 11/10 A2990 RMK AO2 SLP125 70001 T01060100 10111 20106 53005
PADK 231056Z AUTO 01011KT 6SM BR OVC005 11/11 A2989 RMK AO2 SLP122 T01110106
PADK 231038Z AUTO 01012KT 9SM OVC005 11/11 A2989 RMK AO2
PADK 230956Z AUTO 02008KT 10SM OVC007 11/11 A2989 RMK AO2 SLP121 T01110106 401220078
PADK 230939Z AUTO 03009KT 7SM OVC007 11/11 A2989 RMK AO2
PADK 230856Z AUTO 03010KT 10SM OVC005 11/11 A2988 RMK AO2 SLP119 T01110106 53013
PADK 230756Z AUTO 02011KT 10SM OVC005 11/11 A2987 RMK AO2 SLP114 T01110106
PADK 230656Z AUTO 02007KT 5SM BR OVC005 11/11 A2985 RMK AO2 SLP107 T01110106
PADK 230609Z AUTO 36008KT 4SM BR OVC005 11/11 A2985 RMK AO2
PADK 230602Z AUTO 01007KT 2 1/2SM BR OVC005 11/11 A2984 RMK AO2 VIS 2V5
PADK 230552Z AUTO 01008KT 1 3/4SM BR OVC005 11/11 A2984 RMK AO2 SLP106 T01110106 10122 20111 53005